BBC Delaware — V2CN9 — position and weather

sailwx.info

Track history (hours):
 
Tides and Currents Weather Stations Pressure Air Temp Water Temp Dewpoint Dewpoint Depression Visibility Wind Speed Wind Dir Waves Ship Positions

BBC Delaware

Last reported at 2015-Feb-24 01:24 UTC. Time now 2015-Feb-28 02:02 UTC.
Position N 50°32' W 000°49'.

Length 138 m; draft 6.3 m.

Type: Cargo ship. MMSI: 305057000.

Date/timePositionNaut miles runAvg speedWind from/ knotsBaromVisibWave heightAir tempDewpointWater temp
2015-Feb-24 01:24N 50°32' W 000°49'3 3.7
2015-Feb-24 00:32N 50°34' W 000°44'3 3.1
2015-Feb-23 23:33N 50°37' W 000°42'6 6.2
2015-Feb-23 22:33N 50°41' W 000°35'1 1.4
2015-Feb-23 21:32N 50°42' W 000°33'0 0.0
2015-Feb-23 20:32N 50°42' W 000°33'0 0.0
2015-Feb-23 19:32N 50°42' W 000°33'0 0.0
2015-Feb-23 18:32N 50°42' W 000°33'0 0.0
2015-Feb-23 17:32N 50°42' W 000°33'0 0.1
2015-Feb-23 16:32N 50°42' W 000°33'0 0.1
2015-Feb-23 15:32N 50°42' W 000°33'0 0.1
2015-Feb-23 14:34N 50°42' W 000°33'0 0.0
2015-Feb-23 13:31N 50°42' W 000°33'0 0.0
2015-Feb-23 12:31N 50°42' W 000°33'0 0.1
2015-Feb-23 11:31N 50°42' W 000°33'0 0.0
2015-Feb-23 10:31N 50°42' W 000°33'0 0.0
2015-Feb-23 09:31N 50°42' W 000°33'0 0.1
2015-Feb-23 08:31N 50°42' W 000°33'0 0.0
2015-Feb-23 07:31N 50°42' W 000°33'0 0.0
2015-Feb-23 06:31N 50°42' W 000°33'0 0.2
2015-Feb-23 05:31N 50°42' W 000°33'0 0.1
2015-Feb-23 04:31N 50°42' W 000°33'0 0.0
2015-Feb-23 03:31N 50°42' W 000°33'0 0.2
2015-Feb-23 02:31N 50°42' W 000°33'0 0.1
2015-Feb-23 01:31N 50°42' W 000°33'0 0.0
2015-Feb-23 00:31N 50°42' W 000°33'0 0.0
2015-Feb-22 23:31N 50°42' W 000°33'0 0.0
2015-Feb-22 22:31N 50°42' W 000°33'0 0.0
2015-Feb-22 21:31N 50°42' W 000°33'0 0.1
2015-Feb-22 20:31N 50°42' W 000°33'0 0.1
2015-Feb-22 19:28N 50°42' W 000°33'0 0.2
2015-Feb-22 18:31N 50°42' W 000°33'0 0.1
2015-Feb-22 17:31N 50°41' W 000°33'0 0.1
2015-Feb-22 16:31N 50°41' W 000°33'0 0.1
2015-Feb-22 15:31N 50°41' W 000°33'0 0.0
2015-Feb-22 14:31N 50°41' W 000°34'0 0.1
2015-Feb-22 13:28N 50°41' W 000°33'0 0.0
2015-Feb-22 12:31N 50°41' W 000°33'0 0.0
2015-Feb-22 11:31N 50°41' W 000°33'0 0.0
2015-Feb-22 10:28N 50°41' W 000°33'0 0.0
2015-Feb-22 09:31N 50°41' W 000°33'0 0.0
2015-Feb-22 08:31N 50°41' W 000°33'0 0.0
2015-Feb-22 07:31N 50°41' W 000°33'0 0.2
2015-Feb-22 06:31N 50°41' W 000°34'0 0.0
2015-Feb-22 05:31N 50°41' W 000°34'0 0.0
2015-Feb-22 04:31N 50°41' W 000°34'0 0.0
2015-Feb-22 03:31N 50°41' W 000°34'0 0.0
2015-Feb-22 02:31N 50°41' W 000°34'0 0.0
2015-Feb-22 01:31N 50°41' W 000°34'0 0.2
2015-Feb-22 00:31N 50°41' W 000°33'0 0.0
2015-Feb-21 23:31N 50°41' W 000°33'0 0.0
2015-Feb-21 22:31N 50°41' W 000°33'0 0.0
2015-Feb-21 21:31N 50°41' W 000°33'0 0.0
2015-Feb-21 20:33N 50°41' W 000°33'0 0.1
2015-Feb-21 19:33N 50°41' W 000°33'0 0.1
2015-Feb-21 18:33N 50°41' W 000°33'7 7.5
2015-Feb-21 17:33N 50°37' W 000°23'2510.7
2015-Feb-21 15:12N 50°36' E 000°17'710.6
2015-Feb-21 14:33N 50°38' E 000°27'8 7.7
2015-Feb-21 13:33N 50°41' E 000°38'6 6.2
2015-Feb-21 12:33N 50°43' E 000°47'2 2.1
2015-Feb-21 11:33N 50°44' E 000°50'2 1.9
2015-Feb-21 10:33N 50°45' E 000°53'2 1.8
2015-Feb-21 09:33N 50°46' E 000°55'3 3.1
2015-Feb-21 08:33N 50°48' E 000°59'4 4.4
2015-Feb-21 07:32N 50°51' E 001°04'1313.8
2015-Feb-21 06:34N 50°60' E 001°20'1414.1
2015-Feb-21 05:33N 51°09' E 001°37'1312.6
2015-Feb-21 04:33N 51°19' E 001°49'1211.6
2015-Feb-21 03:33N 51°29' E 001°59'1211.6
2015-Feb-21 02:33N 51°38' E 002°11'19013.2
2015-Feb-20 12:11N 54°16' E 005°03'911.8
2015-Feb-20 11:25N 54°21' E 005°17'6110.5
2015-Feb-20 05:33N 54°52' E 006°48'10 9.6
2015-Feb-20 04:33N 54°57' E 007°02'8 8.4
2015-Feb-20 03:33N 55°01' E 007°15'7 7.4
2015-Feb-20 02:33N 55°06' E 007°25'7 7.0
2015-Feb-20 01:33N 55°10' E 007°35'7 6.6
2015-Feb-20 00:33N 55°13' E 007°45'8 8.5
2015-Feb-19 23:33N 55°18' E 007°57'9 9.0
2015-Feb-19 22:33N 55°24' E 008°10'9 9.3
2015-Feb-19 21:32N 55°29' E 008°24'2 2.2
2015-Feb-19 20:30N 55°27' E 008°27'0 0.0
2015-Feb-19 19:33N 55°27' E 008°27'0 0.0
2015-Feb-19 18:32N 55°27' E 008°27'0 0.0
2015-Feb-19 17:33N 55°27' E 008°27'0 0.0
2015-Feb-19 16:33N 55°27' E 008°27'0 0.0
2015-Feb-19 15:33N 55°27' E 008°27'0 0.0
2015-Feb-19 14:33N 55°27' E 008°27'0 0.0
2015-Feb-19 13:33N 55°27' E 008°27'0 0.0
2015-Feb-19 12:33N 55°27' E 008°27'0 0.0
2015-Feb-19 11:33N 55°27' E 008°27'0 0.0
2015-Feb-19 10:32N 55°27' E 008°27'5 4.7
2015-Feb-19 09:34N 55°27' E 008°18'9 9.3
2015-Feb-19 08:33N 55°22' E 008°05'1111.0
2015-Feb-19 07:33N 55°15' E 007°50'1211.6
2015-Feb-19 06:33N 55°08' E 007°33'1010.2
2015-Feb-19 05:33N 54°59' E 007°28'1211.7
2015-Feb-19 04:32N 54°47' E 007°29'1211.9
2015-Feb-19 03:32N 54°35' E 007°28'1212.6
2015-Feb-19 02:33N 54°22' E 007°28'1111.5
2015-Feb-19 01:33N 54°12' E 007°35'1212.1
2015-Feb-19 00:33N 54°05' E 007°53'1111.5
2015-Feb-18 23:33N 54°01' E 008°11'1211.7
2015-Feb-18 22:33N 53°59' E 008°30'1110.7
2015-Feb-18 21:33N 53°52' E 008°44'1110.9
2015-Feb-18 20:33N 53°52' E 009°03'1212.0
2015-Feb-18 19:33N 53°49' E 009°22'1414.3
2015-Feb-18 18:33N 53°36' E 009°35'1212.0
2015-Feb-18 17:33N 53°33' E 009°54'3 3.0
2015-Feb-18 16:31N 53°32' E 009°59'0 0.0
2015-Feb-18 15:25N 53°32' E 009°59'0 0.0
2015-Feb-18 14:32N 53°32' E 009°59'0 0.0
2015-Feb-18 13:32N 53°32' E 009°59'0 0.0
2015-Feb-18 12:32N 53°32' E 009°59'0 0.0
2015-Feb-18 11:32N 53°32' E 009°59'0 0.0
2015-Feb-18 10:29N 53°32' E 009°59'0 0.0
2015-Feb-18 09:33N 53°32' E 009°59'0 0.0
2015-Feb-18 08:33N 53°32' E 009°59'0 0.0
2015-Feb-18 07:33N 53°32' E 009°59'0 0.0
2015-Feb-18 06:33N 53°32' E 009°59'0 0.0
2015-Feb-18 04:30N 53°32' E 009°59'0 0.0
2015-Feb-18 03:33N 53°32' E 009°59'0 0.0
2015-Feb-18 02:33N 53°32' E 009°59'0 0.0
2015-Feb-18 01:33N 53°32' E 009°59'0 0.0
2015-Feb-18 00:33N 53°32' E 009°59'0 0.0
2015-Feb-17 23:33N 53°32' E 009°59'0 0.0
2015-Feb-17 22:33N 53°32' E 009°59'0 0.0
2015-Feb-17 21:28N 53°32' E 009°59'0 0.0
2015-Feb-17 20:28N 53°32' E 009°59'0 0.0
2015-Feb-17 19:22N 53°32' E 009°59'0 0.0
2015-Feb-17 17:28N 53°32' E 009°59'0 0.0
2015-Feb-17 16:31N 53°32' E 009°59'0 0.0
2015-Feb-17 15:31N 53°32' E 009°59'0 0.0
2015-Feb-17 14:29N 53°32' E 009°59'0 0.0
2015-Feb-17 13:32N 53°32' E 009°59'0 0.0
2015-Feb-17 12:32N 53°32' E 009°59'0 0.0
2015-Feb-17 11:29N 53°32' E 009°59'0 0.0
2015-Feb-17 10:29N 53°32' E 009°59'0 0.0
2015-Feb-17 09:29N 53°32' E 009°59'0 0.0
2015-Feb-17 08:29N 53°32' E 009°59'0 0.0
2015-Feb-17 07:32N 53°32' E 009°59'0 0.0
2015-Feb-17 06:32N 53°32' E 009°59'0 0.0
2015-Feb-17 05:32N 53°32' E 009°59'0 0.0
2015-Feb-17 04:23N 53°32' E 009°59'0 0.0
2015-Feb-17 03:32N 53°32' E 009°59'0 0.0
2015-Feb-17 02:32N 53°32' E 009°59'0 0.0
2015-Feb-17 01:26N 53°32' E 009°59'0 0.0
2015-Feb-17 00:29N 53°32' E 009°59'0 0.0
2015-Feb-16 23:31N 53°32' E 009°59'0 0.0
2015-Feb-16 22:23N 53°32' E 009°59'0 0.0
2015-Feb-16 21:31N 53°32' E 009°59'0 0.0
2015-Feb-16 20:29N 53°32' E 009°59'0 0.0
2015-Feb-16 19:19N 53°32' E 009°59'0 0.0
2015-Feb-16 18:30N 53°32' E 009°59'0 0.0
2015-Feb-16 17:33N 53°32' E 009°59'0 0.0
2015-Feb-16 16:30N 53°32' E 009°59'0 0.0
2015-Feb-16 15:29N 53°32' E 009°59'0 0.0
2015-Feb-16 14:33N 53°32' E 009°59'0 0.0
2015-Feb-16 13:27N 53°32' E 009°59'0 0.0
2015-Feb-16 12:33N 53°32' E 009°59'1 1.3
2015-Feb-16 11:33N 53°33' E 009°57'9 9.1
2015-Feb-16 10:33N 53°34' E 009°42'1212.2
2015-Feb-16 09:33N 53°43' E 009°28'1312.9
2015-Feb-16 08:34N 53°53' E 009°14'1312.6
2015-Feb-16 07:33N 53°50' E 008°53'1514.9
2015-Feb-16 06:33N 53°58' E 008°31'1413.5
2015-Feb-16 05:33N 53°59' E 008°08'9 9.2
2015-Feb-16 04:31N 53°57' E 007°52'11 9.3
2015-Feb-16 03:18N 53°55' E 007°34'10 9.1
2015-Feb-16 02:12N 53°52' E 007°17'41 8.7
2015-Feb-15 21:28N 53°43' E 006°09'10 8.6
2015-Feb-15 20:17N 53°40' E 005°53'6 8.7
2015-Feb-15 19:33N 53°38' E 005°43'9 8.9
2015-Feb-15 18:33N 53°35' E 005°29'10 9.8
2015-Feb-15 17:33N 53°32' E 005°13'1110.7
2015-Feb-15 16:33N 53°28' E 004°56'1110.7
2015-Feb-15 15:30N 53°22' E 004°40'1711.8
2015-Feb-15 14:03N 53°07' E 004°27'1011.4
2015-Feb-15 13:12N 52°58' E 004°19'811.5
2015-Feb-15 12:33N 52°51' E 004°15'1110.7
2015-Feb-15 11:33N 52°43' E 004°04'1110.6
2015-Feb-15 10:32N 52°35' E 003°51'1111.1
2015-Feb-15 09:33N 52°27' E 003°38'1211.0
2015-Feb-15 08:30N 52°19' E 003°25'1210.8
2015-Feb-15 07:21N 52°11' E 003°10'4010.4
2015-Feb-15 03:32N 51°40' E 002°29'1010.4
2015-Feb-15 02:32N 51°32' E 002°19'1110.2
2015-Feb-15 01:27N 51°22' E 002°10'910.5
2015-Feb-15 00:33N 51°14' E 002°03'1010.4
2015-Feb-14 23:33N 51°09' E 001°49'  
Track history (hours):
 
Tides and Currents Weather Stations Pressure Air Temp Water Temp Dewpoint Dewpoint Depression Visibility Wind Speed Wind Dir Waves Ship Positions

BBC Delaware

Last reported at 2015-Feb-24 01:24 UTC. Time now 2015-Feb-28 02:02 UTC.
Position N 50°32' W 000°49'.

Length 138 m; draft 6.3 m.

Type: Cargo ship. MMSI: 305057000.

Date/timePositionNaut miles runAvg speedWind from/ knotsBaromVisibWave heightAir tempDewpointWater temp
2015-Feb-24 01:24N 50°32' W 000°49'3 3.7
2015-Feb-24 00:32N 50°34' W 000°44'3 3.1
2015-Feb-23 23:33N 50°37' W 000°42'6 6.2
2015-Feb-23 22:33N 50°41' W 000°35'1 1.4
2015-Feb-23 21:32N 50°42' W 000°33'0 0.0
2015-Feb-23 20:32N 50°42' W 000°33'0 0.0
2015-Feb-23 19:32N 50°42' W 000°33'0 0.0
2015-Feb-23 18:32N 50°42' W 000°33'0 0.0
2015-Feb-23 17:32N 50°42' W 000°33'0 0.1
2015-Feb-23 16:32N 50°42' W 000°33'0 0.1
2015-Feb-23 15:32N 50°42' W 000°33'0 0.1
2015-Feb-23 14:34N 50°42' W 000°33'0 0.0
2015-Feb-23 13:31N 50°42' W 000°33'0 0.0
2015-Feb-23 12:31N 50°42' W 000°33'0 0.1
2015-Feb-23 11:31N 50°42' W 000°33'0 0.0
2015-Feb-23 10:31N 50°42' W 000°33'0 0.0
2015-Feb-23 09:31N 50°42' W 000°33'0 0.1
2015-Feb-23 08:31N 50°42' W 000°33'0 0.0
2015-Feb-23 07:31N 50°42' W 000°33'0 0.0
2015-Feb-23 06:31N 50°42' W 000°33'0 0.2
2015-Feb-23 05:31N 50°42' W 000°33'0 0.1
2015-Feb-23 04:31N 50°42' W 000°33'0 0.0
2015-Feb-23 03:31N 50°42' W 000°33'0 0.2
2015-Feb-23 02:31N 50°42' W 000°33'0 0.1
2015-Feb-23 01:31N 50°42' W 000°33'0 0.0
2015-Feb-23 00:31N 50°42' W 000°33'0 0.0
2015-Feb-22 23:31N 50°42' W 000°33'0 0.0
2015-Feb-22 22:31N 50°42' W 000°33'0 0.0
2015-Feb-22 21:31N 50°42' W 000°33'0 0.1
2015-Feb-22 20:31N 50°42' W 000°33'0 0.1
2015-Feb-22 19:28N 50°42' W 000°33'0 0.2
2015-Feb-22 18:31N 50°42' W 000°33'0 0.1
2015-Feb-22 17:31N 50°41' W 000°33'0 0.1
2015-Feb-22 16:31N 50°41' W 000°33'0 0.1
2015-Feb-22 15:31N 50°41' W 000°33'0 0.0
2015-Feb-22 14:31N 50°41' W 000°34'0 0.1
2015-Feb-22 13:28N 50°41' W 000°33'0 0.0
2015-Feb-22 12:31N 50°41' W 000°33'0 0.0
2015-Feb-22 11:31N 50°41' W 000°33'0 0.0
2015-Feb-22 10:28N 50°41' W 000°33'0 0.0
2015-Feb-22 09:31N 50°41' W 000°33'0 0.0
2015-Feb-22 08:31N 50°41' W 000°33'0 0.0
2015-Feb-22 07:31N 50°41' W 000°33'0 0.2
2015-Feb-22 06:31N 50°41' W 000°34'0 0.0
2015-Feb-22 05:31N 50°41' W 000°34'0 0.0
2015-Feb-22 04:31N 50°41' W 000°34'0 0.0
2015-Feb-22 03:31N 50°41' W 000°34'0 0.0
2015-Feb-22 02:31N 50°41' W 000°34'0 0.0
2015-Feb-22 01:31N 50°41' W 000°34'0 0.2
2015-Feb-22 00:31N 50°41' W 000°33'0 0.0
2015-Feb-21 23:31N 50°41' W 000°33'0 0.0
2015-Feb-21 22:31N 50°41' W 000°33'0 0.0
2015-Feb-21 21:31N 50°41' W 000°33'0 0.0
2015-Feb-21 20:33N 50°41' W 000°33'0 0.1
2015-Feb-21 19:33N 50°41' W 000°33'0 0.1
2015-Feb-21 18:33N 50°41' W 000°33'7 7.5
2015-Feb-21 17:33N 50°37' W 000°23'2510.7
2015-Feb-21 15:12N 50°36' E 000°17'710.6
2015-Feb-21 14:33N 50°38' E 000°27'8 7.7
2015-Feb-21 13:33N 50°41' E 000°38'6 6.2
2015-Feb-21 12:33N 50°43' E 000°47'2 2.1
2015-Feb-21 11:33N 50°44' E 000°50'2 1.9
2015-Feb-21 10:33N 50°45' E 000°53'2 1.8
2015-Feb-21 09:33N 50°46' E 000°55'3 3.1
2015-Feb-21 08:33N 50°48' E 000°59'4 4.4
2015-Feb-21 07:32N 50°51' E 001°04'1313.8
2015-Feb-21 06:34N 50°60' E 001°20'1414.1
2015-Feb-21 05:33N 51°09' E 001°37'1312.6
2015-Feb-21 04:33N 51°19' E 001°49'1211.6
2015-Feb-21 03:33N 51°29' E 001°59'1211.6
2015-Feb-21 02:33N 51°38' E 002°11'19013.2
2015-Feb-20 12:11N 54°16' E 005°03'911.8
2015-Feb-20 11:25N 54°21' E 005°17'6110.5
2015-Feb-20 05:33N 54°52' E 006°48'10 9.6
2015-Feb-20 04:33N 54°57' E 007°02'8 8.4
2015-Feb-20 03:33N 55°01' E 007°15'7 7.4
2015-Feb-20 02:33N 55°06' E 007°25'7 7.0
2015-Feb-20 01:33N 55°10' E 007°35'7 6.6
2015-Feb-20 00:33N 55°13' E 007°45'8 8.5
2015-Feb-19 23:33N 55°18' E 007°57'9 9.0
2015-Feb-19 22:33N 55°24' E 008°10'9 9.3
2015-Feb-19 21:32N 55°29' E 008°24'2 2.2
2015-Feb-19 20:30N 55°27' E 008°27'0 0.0
2015-Feb-19 19:33N 55°27' E 008°27'0 0.0
2015-Feb-19 18:32N 55°27' E 008°27'0 0.0
2015-Feb-19 17:33N 55°27' E 008°27'0 0.0
2015-Feb-19 16:33N 55°27' E 008°27'0 0.0
2015-Feb-19 15:33N 55°27' E 008°27'0 0.0
2015-Feb-19 14:33N 55°27' E 008°27'0 0.0
2015-Feb-19 13:33N 55°27' E 008°27'0 0.0
2015-Feb-19 12:33N 55°27' E 008°27'0 0.0
2015-Feb-19 11:33N 55°27' E 008°27'0 0.0
2015-Feb-19 10:32N 55°27' E 008°27'5 4.7
2015-Feb-19 09:34N 55°27' E 008°18'9 9.3
2015-Feb-19 08:33N 55°22' E 008°05'1111.0
2015-Feb-19 07:33N 55°15' E 007°50'1211.6
2015-Feb-19 06:33N 55°08' E 007°33'1010.2
2015-Feb-19 05:33N 54°59' E 007°28'1211.7
2015-Feb-19 04:32N 54°47' E 007°29'1211.9
2015-Feb-19 03:32N 54°35' E 007°28'1212.6
2015-Feb-19 02:33N 54°22' E 007°28'1111.5
2015-Feb-19 01:33N 54°12' E 007°35'1212.1
2015-Feb-19 00:33N 54°05' E 007°53'1111.5
2015-Feb-18 23:33N 54°01' E 008°11'1211.7
2015-Feb-18 22:33N 53°59' E 008°30'1110.7
2015-Feb-18 21:33N 53°52' E 008°44'1110.9
2015-Feb-18 20:33N 53°52' E 009°03'1212.0
2015-Feb-18 19:33N 53°49' E 009°22'1414.3
2015-Feb-18 18:33N 53°36' E 009°35'1212.0
2015-Feb-18 17:33N 53°33' E 009°54'3 3.0
2015-Feb-18 16:31N 53°32' E 009°59'0 0.0
2015-Feb-18 15:25N 53°32' E 009°59'0 0.0
2015-Feb-18 14:32N 53°32' E 009°59'0 0.0
2015-Feb-18 13:32N 53°32' E 009°59'0 0.0
2015-Feb-18 12:32N 53°32' E 009°59'0 0.0
2015-Feb-18 11:32N 53°32' E 009°59'0 0.0
2015-Feb-18 10:29N 53°32' E 009°59'0 0.0
2015-Feb-18 09:33N 53°32' E 009°59'0 0.0
2015-Feb-18 08:33N 53°32' E 009°59'0 0.0
2015-Feb-18 07:33N 53°32' E 009°59'0 0.0
2015-Feb-18 06:33N 53°32' E 009°59'0 0.0
2015-Feb-18 04:30N 53°32' E 009°59'0 0.0
2015-Feb-18 03:33N 53°32' E 009°59'0 0.0
2015-Feb-18 02:33N 53°32' E 009°59'0 0.0
2015-Feb-18 01:33N 53°32' E 009°59'0 0.0
2015-Feb-18 00:33N 53°32' E 009°59'0 0.0
2015-Feb-17 23:33N 53°32' E 009°59'0 0.0
2015-Feb-17 22:33N 53°32' E 009°59'0 0.0
2015-Feb-17 21:28N 53°32' E 009°59'0 0.0
2015-Feb-17 20:28N 53°32' E 009°59'0 0.0
2015-Feb-17 19:22N 53°32' E 009°59'0 0.0
2015-Feb-17 17:28N 53°32' E 009°59'0 0.0
2015-Feb-17 16:31N 53°32' E 009°59'0 0.0
2015-Feb-17 15:31N 53°32' E 009°59'0 0.0
2015-Feb-17 14:29N 53°32' E 009°59'0 0.0
2015-Feb-17 13:32N 53°32' E 009°59'0 0.0
2015-Feb-17 12:32N 53°32' E 009°59'0 0.0
2015-Feb-17 11:29N 53°32' E 009°59'0 0.0
2015-Feb-17 10:29N 53°32' E 009°59'0 0.0
2015-Feb-17 09:29N 53°32' E 009°59'0 0.0
2015-Feb-17 08:29N 53°32' E 009°59'0 0.0
2015-Feb-17 07:32N 53°32' E 009°59'0 0.0
2015-Feb-17 06:32N 53°32' E 009°59'0 0.0
2015-Feb-17 05:32N 53°32' E 009°59'0 0.0
2015-Feb-17 04:23N 53°32' E 009°59'0 0.0
2015-Feb-17 03:32N 53°32' E 009°59'0 0.0
2015-Feb-17 02:32N 53°32' E 009°59'0 0.0
2015-Feb-17 01:26N 53°32' E 009°59'0 0.0
2015-Feb-17 00:29N 53°32' E 009°59'0 0.0
2015-Feb-16 23:31N 53°32' E 009°59'0 0.0
2015-Feb-16 22:23N 53°32' E 009°59'0 0.0
2015-Feb-16 21:31N 53°32' E 009°59'0 0.0
2015-Feb-16 20:29N 53°32' E 009°59'0 0.0
2015-Feb-16 19:19N 53°32' E 009°59'0 0.0
2015-Feb-16 18:30N 53°32' E 009°59'0 0.0
2015-Feb-16 17:33N 53°32' E 009°59'0 0.0
2015-Feb-16 16:30N 53°32' E 009°59'0 0.0
2015-Feb-16 15:29N 53°32' E 009°59'0 0.0
2015-Feb-16 14:33N 53°32' E 009°59'0 0.0
2015-Feb-16 13:27N 53°32' E 009°59'0 0.0
2015-Feb-16 12:33N 53°32' E 009°59'1 1.3
2015-Feb-16 11:33N 53°33' E 009°57'9 9.1
2015-Feb-16 10:33N 53°34' E 009°42'1212.2
2015-Feb-16 09:33N 53°43' E 009°28'1312.9
2015-Feb-16 08:34N 53°53' E 009°14'1312.6
2015-Feb-16 07:33N 53°50' E 008°53'1514.9
2015-Feb-16 06:33N 53°58' E 008°31'1413.5
2015-Feb-16 05:33N 53°59' E 008°08'9 9.2
2015-Feb-16 04:31N 53°57' E 007°52'11 9.3
2015-Feb-16 03:18N 53°55' E 007°34'10 9.1
2015-Feb-16 02:12N 53°52' E 007°17'41 8.7
2015-Feb-15 21:28N 53°43' E 006°09'10 8.6
2015-Feb-15 20:17N 53°40' E 005°53'6 8.7
2015-Feb-15 19:33N 53°38' E 005°43'9 8.9
2015-Feb-15 18:33N 53°35' E 005°29'10 9.8
2015-Feb-15 17:33N 53°32' E 005°13'1110.7
2015-Feb-15 16:33N 53°28' E 004°56'1110.7
2015-Feb-15 15:30N 53°22' E 004°40'1711.8
2015-Feb-15 14:03N 53°07' E 004°27'1011.4
2015-Feb-15 13:12N 52°58' E 004°19'811.5
2015-Feb-15 12:33N 52°51' E 004°15'1110.7
2015-Feb-15 11:33N 52°43' E 004°04'1110.6
2015-Feb-15 10:32N 52°35' E 003°51'1111.1
2015-Feb-15 09:33N 52°27' E 003°38'1211.0
2015-Feb-15 08:30N 52°19' E 003°25'1210.8
2015-Feb-15 07:21N 52°11' E 003°10'4010.4
2015-Feb-15 03:32N 51°40' E 002°29'1010.4
2015-Feb-15 02:32N 51°32' E 002°19'1110.2
2015-Feb-15 01:27N 51°22' E 002°10'910.5
2015-Feb-15 00:33N 51°14' E 002°03'1010.4
2015-Feb-14 23:33N 51°09' E 001°49'  

Dump ship's entire track history